sensor_id;sensor_type;location;lat;lon;timestamp;P1;durP1;ratioP1;P2;durP2;ratioP2
35530;SDS011;21637;53.352;-6.356;2023-05-29T00:00:19;19.02;;;4.07;;
35530;SDS011;21637;53.352;-6.356;2023-05-29T00:02:46;16.80;;;4.18;;
35530;SDS011;21637;53.352;-6.356;2023-05-29T00:05:12;19.00;;;4.47;;
35530;SDS011;21637;53.352;-6.356;2023-05-29T00:07:39;13.27;;;4.55;;
35530;SDS011;21637;53.352;-6.356;2023-05-29T00:10:06;11.77;;;4.68;;
35530;SDS011;21637;53.352;-6.356;2023-05-29T00:12:33;19.50;;;4.30;;
35530;SDS011;21637;53.352;-6.356;2023-05-29T00:14:59;15.00;;;4.03;;
35530;SDS011;21637;53.352;-6.356;2023-05-29T00:17:25;15.90;;;4.40;;
35530;SDS011;21637;53.352;-6.356;2023-05-29T00:19:51;16.27;;;3.80;;
35530;SDS011;21637;53.352;-6.356;2023-05-29T00:22:17;12.13;;;4.30;;
35530;SDS011;21637;53.352;-6.356;2023-05-29T00:24:43;12.20;;;3.97;;
35530;SDS011;21637;53.352;-6.356;2023-05-29T00:27:09;18.77;;;4.68;;
35530;SDS011;21637;53.352;-6.356;2023-05-29T00:29:35;14.30;;;4.05;;
35530;SDS011;21637;53.352;-6.356;2023-05-29T00:32:03;19.55;;;3.80;;
35530;SDS011;21637;53.352;-6.356;2023-05-29T00:34:32;19.83;;;4.68;;
35530;SDS011;21637;53.352;-6.356;2023-05-29T00:36:58;15.15;;;3.58;;
35530;SDS011;21637;53.352;-6.356;2023-05-29T00:39:24;16.55;;;4.32;;
35530;SDS011;21637;53.352;-6.356;2023-05-29T00:41:50;17.73;;;4.05;;
35530;SDS011;21637;53.352;-6.356;2023-05-29T00:44:17;12.40;;;4.05;;
35530;SDS011;21637;53.352;-6.356;2023-05-29T00:46:43;15.60;;;3.50;;
35530;SDS011;21637;53.352;-6.356;2023-05-29T00:49:10;12.27;;;3.67;;
35530;SDS011;21637;53.352;-6.356;2023-05-29T00:51:36;15.60;;;3.58;;
35530;SDS011;21637;53.352;-6.356;2023-05-29T00:54:04;15.27;;;3.28;;
35530;SDS011;21637;53.352;-6.356;2023-05-29T00:56:31;11.90;;;3.33;;
35530;SDS011;21637;53.352;-6.356;2023-05-29T00:58:59;15.32;;;3.53;;
35530;SDS011;21637;53.352;-6.356;2023-05-29T01:01:25;15.07;;;3.83;;
35530;SDS011;21637;53.352;-6.356;2023-05-29T01:03:52;10.52;;;3.25;;
35530;SDS011;21637;53.352;-6.356;2023-05-29T01:06:20;10.07;;;3.40;;
35530;SDS011;21637;53.352;-6.356;2023-05-29T01:08:46;15.65;;;4.30;;
35530;SDS011;21637;53.352;-6.356;2023-05-29T01:13:57;17.02;;;4.05;;
35530;SDS011;21637;53.352;-6.356;2023-05-29T01:22:24;8.45;;;3.47;;
35530;SDS011;21637;53.352;-6.356;2023-05-29T01:27:34;10.32;;;3.67;;
35530;SDS011;21637;53.352;-6.356;2023-05-29T01:30:01;11.07;;;4.03;;
35530;SDS011;21637;53.352;-6.356;2023-05-29T01:32:28;14.65;;;4.13;;
35530;SDS011;21637;53.352;-6.356;2023-05-29T01:34:55;15.20;;;3.90;;
35530;SDS011;21637;53.352;-6.356;2023-05-29T01:37:21;12.65;;;3.92;;
35530;SDS011;21637;53.352;-6.356;2023-05-29T01:39:46;10.00;;;3.65;;
35530;SDS011;21637;53.352;-6.356;2023-05-29T01:42:12;14.07;;;3.97;;
35530;SDS011;21637;53.352;-6.356;2023-05-29T01:44:39;16.10;;;4.30;;
35530;SDS011;21637;53.352;-6.356;2023-05-29T01:47:05;18.35;;;4.38;;
35530;SDS011;21637;53.352;-6.356;2023-05-29T01:49:31;10.70;;;3.40;;
35530;SDS011;21637;53.352;-6.356;2023-05-29T01:51:57;11.20;;;4.03;;
35530;SDS011;21637;53.352;-6.356;2023-05-29T01:54:23;11.98;;;3.75;;
35530;SDS011;21637;53.352;-6.356;2023-05-29T01:56:49;11.85;;;3.83;;
35530;SDS011;21637;53.352;-6.356;2023-05-29T01:59:16;14.18;;;3.38;;
35530;SDS011;21637;53.352;-6.356;2023-05-29T02:01:42;14.35;;;3.88;;
35530;SDS011;21637;53.352;-6.356;2023-05-29T02:04:08;15.70;;;3.78;;
35530;SDS011;21637;53.352;-6.356;2023-05-29T02:06:33;11.75;;;4.00;;
35530;SDS011;21637;53.352;-6.356;2023-05-29T02:08:59;9.77;;;3.80;;
35530;SDS011;21637;53.352;-6.356;2023-05-29T02:11:25;12.68;;;3.83;;
35530;SDS011;21637;53.352;-6.356;2023-05-29T02:13:53;16.13;;;3.92;;
35530;SDS011;21637;53.352;-6.356;2023-05-29T02:16:19;12.80;;;4.10;;
35530;SDS011;21637;53.352;-6.356;2023-05-29T02:18:45;17.33;;;3.88;;
35530;SDS011;21637;53.352;-6.356;2023-05-29T02:21:11;14.10;;;3.50;;
35530;SDS011;21637;53.352;-6.356;2023-05-29T02:23:37;14.82;;;4.38;;
35530;SDS011;21637;53.352;-6.356;2023-05-29T02:26:04;11.73;;;4.25;;
35530;SDS011;21637;53.352;-6.356;2023-05-29T02:28:30;14.65;;;3.67;;
35530;SDS011;21637;53.352;-6.356;2023-05-29T02:30:55;12.38;;;3.70;;
35530;SDS011;21637;53.352;-6.356;2023-05-29T02:33:21;12.43;;;3.70;;
35530;SDS011;21637;53.352;-6.356;2023-05-29T02:35:47;15.23;;;4.00;;
35530;SDS011;21637;53.352;-6.356;2023-05-29T02:38:13;15.18;;;4.53;;
35530;SDS011;21637;53.352;-6.356;2023-05-29T02:40:38;14.38;;;3.90;;
35530;SDS011;21637;53.352;-6.356;2023-05-29T02:43:05;18.38;;;4.53;;
35530;SDS011;21637;53.352;-6.356;2023-05-29T02:45:31;11.27;;;3.92;;
35530;SDS011;21637;53.352;-6.356;2023-05-29T02:47:58;13.88;;;3.35;;
35530;SDS011;21637;53.352;-6.356;2023-05-29T02:50:24;16.85;;;4.40;;
35530;SDS011;21637;53.352;-6.356;2023-05-29T02:52:50;15.32;;;4.25;;
35530;SDS011;21637;53.352;-6.356;2023-05-29T02:55:15;11.45;;;3.53;;
35530;SDS011;21637;53.352;-6.356;2023-05-29T02:57:41;12.50;;;4.22;;
35530;SDS011;21637;53.352;-6.356;2023-05-29T03:00:07;9.50;;;3.40;;
35530;SDS011;21637;53.352;-6.356;2023-05-29T03:02:34;11.02;;;3.75;;
35530;SDS011;21637;53.352;-6.356;2023-05-29T03:05:02;8.93;;;3.50;;
35530;SDS011;21637;53.352;-6.356;2023-05-29T03:07:28;14.50;;;3.75;;
35530;SDS011;21637;53.352;-6.356;2023-05-29T03:09:54;11.73;;;3.72;;
35530;SDS011;21637;53.352;-6.356;2023-05-29T03:12:20;16.20;;;4.35;;
35530;SDS011;21637;53.352;-6.356;2023-05-29T03:14:46;11.18;;;3.85;;
35530;SDS011;21637;53.352;-6.356;2023-05-29T03:17:12;13.65;;;3.75;;
35530;SDS011;21637;53.352;-6.356;2023-05-29T03:19:38;14.40;;;4.25;;
35530;SDS011;21637;53.352;-6.356;2023-05-29T03:22:04;10.63;;;3.72;;
35530;SDS011;21637;53.352;-6.356;2023-05-29T03:24:30;12.90;;;4.03;;
35530;SDS011;21637;53.352;-6.356;2023-05-29T03:26:56;14.52;;;3.97;;
35530;SDS011;21637;53.352;-6.356;2023-05-29T03:29:21;11.88;;;4.40;;
35530;SDS011;21637;53.352;-6.356;2023-05-29T03:31:47;13.18;;;3.53;;
35530;SDS011;21637;53.352;-6.356;2023-05-29T03:34:13;10.55;;;3.85;;
35530;SDS011;21637;53.352;-6.356;2023-05-29T03:36:39;12.07;;;3.80;;
35530;SDS011;21637;53.352;-6.356;2023-05-29T03:39:05;12.05;;;3.40;;
35530;SDS011;21637;53.352;-6.356;2023-05-29T03:41:31;12.23;;;4.13;;
35530;SDS011;21637;53.352;-6.356;2023-05-29T03:43:57;15.40;;;3.97;;
35530;SDS011;21637;53.352;-6.356;2023-05-29T03:46:22;14.40;;;4.18;;
35530;SDS011;21637;53.352;-6.356;2023-05-29T03:48:48;16.60;;;4.63;;
35530;SDS011;21637;53.352;-6.356;2023-05-29T03:51:14;15.13;;;4.38;;
35530;SDS011;21637;53.352;-6.356;2023-05-29T03:53:40;14.35;;;3.72;;
35530;SDS011;21637;53.352;-6.356;2023-05-29T03:56:06;11.82;;;4.28;;
35530;SDS011;21637;53.352;-6.356;2023-05-29T03:58:31;12.95;;;3.80;;
35530;SDS011;21637;53.352;-6.356;2023-05-29T04:00:57;13.95;;;3.75;;
35530;SDS011;21637;53.352;-6.356;2023-05-29T04:03:23;16.08;;;3.70;;
35530;SDS011;21637;53.352;-6.356;2023-05-29T04:05:49;12.38;;;4.20;;
35530;SDS011;21637;53.352;-6.356;2023-05-29T04:08:14;11.13;;;4.05;;
35530;SDS011;21637;53.352;-6.356;2023-05-29T04:10:40;14.50;;;4.25;;
35530;SDS011;21637;53.352;-6.356;2023-05-29T04:13:06;13.30;;;4.20;;
35530;SDS011;21637;53.352;-6.356;2023-05-29T04:15:32;11.75;;;3.67;;
35530;SDS011;21637;53.352;-6.356;2023-05-29T04:17:58;12.68;;;3.78;;
35530;SDS011;21637;53.352;-6.356;2023-05-29T04:20:24;11.93;;;3.80;;
35530;SDS011;21637;53.352;-6.356;2023-05-29T04:22:50;13.07;;;4.28;;
35530;SDS011;21637;53.352;-6.356;2023-05-29T04:25:16;14.60;;;4.18;;
35530;SDS011;21637;53.352;-6.356;2023-05-29T04:27:43;14.90;;;3.85;;
35530;SDS011;21637;53.352;-6.356;2023-05-29T04:30:13;7.47;;;3.95;;
35530;SDS011;21637;53.352;-6.356;2023-05-29T04:32:40;13.38;;;4.07;;
35530;SDS011;21637;53.352;-6.356;2023-05-29T04:35:06;10.32;;;3.90;;
35530;SDS011;21637;53.352;-6.356;2023-05-29T04:37:32;11.02;;;3.88;;
35530;SDS011;21637;53.352;-6.356;2023-05-29T04:40:03;11.85;;;4.47;;
35530;SDS011;21637;53.352;-6.356;2023-05-29T04:42:38;13.50;;;4.00;;
35530;SDS011;21637;53.352;-6.356;2023-05-29T04:45:09;15.23;;;4.13;;
35530;SDS011;21637;53.352;-6.356;2023-05-29T04:47:38;11.77;;;3.47;;
35530;SDS011;21637;53.352;-6.356;2023-05-29T04:50:17;17.77;;;4.13;;
35530;SDS011;21637;53.352;-6.356;2023-05-29T04:52:43;10.98;;;4.47;;
35530;SDS011;21637;53.352;-6.356;2023-05-29T04:55:09;11.88;;;4.35;;
35530;SDS011;21637;53.352;-6.356;2023-05-29T04:57:35;9.93;;;4.10;;
35530;SDS011;21637;53.352;-6.356;2023-05-29T05:00:02;14.48;;;3.78;;
35530;SDS011;21637;53.352;-6.356;2023-05-29T05:02:38;13.05;;;3.83;;
35530;SDS011;21637;53.352;-6.356;2023-05-29T05:05:06;9.38;;;3.88;;
35530;SDS011;21637;53.352;-6.356;2023-05-29T05:07:33;10.23;;;3.83;;
35530;SDS011;21637;53.352;-6.356;2023-05-29T05:09:59;18.48;;;4.30;;
35530;SDS011;21637;53.352;-6.356;2023-05-29T05:12:24;14.55;;;3.95;;
35530;SDS011;21637;53.352;-6.356;2023-05-29T05:14:50;10.07;;;3.63;;
35530;SDS011;21637;53.352;-6.356;2023-05-29T05:17:16;11.00;;;3.65;;
35530;SDS011;21637;53.352;-6.356;2023-05-29T05:19:42;11.98;;;3.67;;
35530;SDS011;21637;53.352;-6.356;2023-05-29T05:22:07;8.15;;;3.00;;
35530;SDS011;21637;53.352;-6.356;2023-05-29T05:24:33;11.18;;;3.70;;
35530;SDS011;21637;53.352;-6.356;2023-05-29T05:27:00;12.75;;;3.38;;
35530;SDS011;21637;53.352;-6.356;2023-05-29T05:29:25;17.17;;;3.80;;
35530;SDS011;21637;53.352;-6.356;2023-05-29T05:31:51;12.15;;;4.10;;
35530;SDS011;21637;53.352;-6.356;2023-05-29T05:34:17;10.15;;;3.65;;
35530;SDS011;21637;53.352;-6.356;2023-05-29T05:36:42;13.23;;;4.22;;
35530;SDS011;21637;53.352;-6.356;2023-05-29T05:39:08;14.40;;;4.32;;
35530;SDS011;21637;53.352;-6.356;2023-05-29T05:41:34;13.07;;;4.00;;
35530;SDS011;21637;53.352;-6.356;2023-05-29T05:43:59;12.18;;;3.28;;
35530;SDS011;21637;53.352;-6.356;2023-05-29T05:46:25;14.07;;;4.00;;
35530;SDS011;21637;53.352;-6.356;2023-05-29T05:48:51;12.82;;;4.47;;
35530;SDS011;21637;53.352;-6.356;2023-05-29T05:51:17;9.32;;;3.85;;
35530;SDS011;21637;53.352;-6.356;2023-05-29T05:53:43;13.65;;;4.10;;
35530;SDS011;21637;53.352;-6.356;2023-05-29T05:56:08;18.10;;;4.72;;
35530;SDS011;21637;53.352;-6.356;2023-05-29T05:58:34;20.10;;;4.63;;
35530;SDS011;21637;53.352;-6.356;2023-05-29T06:01:00;13.32;;;4.10;;
35530;SDS011;21637;53.352;-6.356;2023-05-29T06:03:26;14.50;;;4.53;;
35530;SDS011;21637;53.352;-6.356;2023-05-29T06:05:52;11.30;;;4.05;;
35530;SDS011;21637;53.352;-6.356;2023-05-29T06:08:19;15.43;;;4.28;;
35530;SDS011;21637;53.352;-6.356;2023-05-29T06:10:45;17.73;;;4.85;;
35530;SDS011;21637;53.352;-6.356;2023-05-29T06:13:11;14.77;;;4.72;;
35530;SDS011;21637;53.352;-6.356;2023-05-29T06:15:37;16.88;;;5.57;;
35530;SDS011;21637;53.352;-6.356;2023-05-29T06:18:05;15.35;;;5.50;;
35530;SDS011;21637;53.352;-6.356;2023-05-29T06:20:30;18.42;;;5.00;;
35530;SDS011;21637;53.352;-6.356;2023-05-29T06:22:56;17.48;;;5.97;;
35530;SDS011;21637;53.352;-6.356;2023-05-29T06:25:22;14.73;;;5.68;;
35530;SDS011;21637;53.352;-6.356;2023-05-29T06:27:54;19.40;;;6.38;;
35530;SDS011;21637;53.352;-6.356;2023-05-29T06:30:20;20.45;;;6.82;;
35530;SDS011;21637;53.352;-6.356;2023-05-29T06:32:46;20.77;;;6.20;;
35530;SDS011;21637;53.352;-6.356;2023-05-29T06:35:11;16.88;;;6.53;;
35530;SDS011;21637;53.352;-6.356;2023-05-29T06:37:37;16.40;;;6.05;;
35530;SDS011;21637;53.352;-6.356;2023-05-29T06:40:03;19.70;;;6.65;;
35530;SDS011;21637;53.352;-6.356;2023-05-29T06:42:29;17.10;;;6.53;;
35530;SDS011;21637;53.352;-6.356;2023-05-29T06:44:55;18.92;;;6.47;;
35530;SDS011;21637;53.352;-6.356;2023-05-29T06:47:21;19.02;;;6.72;;
35530;SDS011;21637;53.352;-6.356;2023-05-29T06:49:47;21.65;;;7.40;;
35530;SDS011;21637;53.352;-6.356;2023-05-29T06:52:12;25.90;;;6.65;;
35530;SDS011;21637;53.352;-6.356;2023-05-29T06:54:38;21.70;;;7.85;;
35530;SDS011;21637;53.352;-6.356;2023-05-29T06:57:04;22.33;;;7.00;;
35530;SDS011;21637;53.352;-6.356;2023-05-29T06:59:30;21.35;;;6.95;;
35530;SDS011;21637;53.352;-6.356;2023-05-29T07:01:55;19.40;;;6.35;;
35530;SDS011;21637;53.352;-6.356;2023-05-29T07:04:21;27.02;;;7.35;;
35530;SDS011;21637;53.352;-6.356;2023-05-29T07:06:47;18.95;;;6.32;;
35530;SDS011;21637;53.352;-6.356;2023-05-29T07:09:12;21.48;;;7.00;;
35530;SDS011;21637;53.352;-6.356;2023-05-29T07:11:38;29.05;;;7.38;;
35530;SDS011;21637;53.352;-6.356;2023-05-29T07:14:04;13.90;;;6.28;;
35530;SDS011;21637;53.352;-6.356;2023-05-29T07:16:30;17.52;;;5.25;;
35530;SDS011;21637;53.352;-6.356;2023-05-29T07:18:55;18.38;;;6.60;;
35530;SDS011;21637;53.352;-6.356;2023-05-29T07:21:21;20.88;;;6.80;;
35530;SDS011;21637;53.352;-6.356;2023-05-29T07:23:47;21.63;;;6.95;;
35530;SDS011;21637;53.352;-6.356;2023-05-29T07:26:13;19.10;;;5.60;;
35530;SDS011;21637;53.352;-6.356;2023-05-29T07:28:38;16.33;;;6.70;;
35530;SDS011;21637;53.352;-6.356;2023-05-29T07:31:04;15.98;;;5.45;;
35530;SDS011;21637;53.352;-6.356;2023-05-29T07:33:30;12.82;;;6.05;;
35530;SDS011;21637;53.352;-6.356;2023-05-29T07:35:56;20.52;;;5.82;;
35530;SDS011;21637;53.352;-6.356;2023-05-29T07:38:21;19.55;;;5.93;;
35530;SDS011;21637;53.352;-6.356;2023-05-29T07:40:47;17.65;;;5.78;;
35530;SDS011;21637;53.352;-6.356;2023-05-29T07:43:13;21.23;;;5.90;;
35530;SDS011;21637;53.352;-6.356;2023-05-29T07:45:39;16.48;;;5.68;;
35530;SDS011;21637;53.352;-6.356;2023-05-29T07:48:04;20.40;;;5.95;;
35530;SDS011;21637;53.352;-6.356;2023-05-29T07:50:30;15.10;;;6.00;;
35530;SDS011;21637;53.352;-6.356;2023-05-29T07:52:56;16.10;;;6.05;;
35530;SDS011;21637;53.352;-6.356;2023-05-29T07:55:22;18.90;;;5.90;;
35530;SDS011;21637;53.352;-6.356;2023-05-29T07:57:47;17.95;;;5.90;;
35530;SDS011;21637;53.352;-6.356;2023-05-29T08:00:14;13.52;;;5.75;;
35530;SDS011;21637;53.352;-6.356;2023-05-29T08:02:40;16.23;;;5.82;;
35530;SDS011;21637;53.352;-6.356;2023-05-29T08:05:07;11.48;;;5.28;;
35530;SDS011;21637;53.352;-6.356;2023-05-29T08:07:34;16.02;;;4.97;;
35530;SDS011;21637;53.352;-6.356;2023-05-29T08:10:00;22.00;;;6.65;;
35530;SDS011;21637;53.352;-6.356;2023-05-29T08:12:26;13.18;;;6.30;;
35530;SDS011;21637;53.352;-6.356;2023-05-29T08:14:51;19.85;;;6.20;;
35530;SDS011;21637;53.352;-6.356;2023-05-29T08:17:17;13.35;;;5.55;;
35530;SDS011;21637;53.352;-6.356;2023-05-29T08:19:43;14.10;;;5.80;;
35530;SDS011;21637;53.352;-6.356;2023-05-29T08:22:11;21.38;;;6.57;;
35530;SDS011;21637;53.352;-6.356;2023-05-29T08:24:38;21.77;;;6.22;;
35530;SDS011;21637;53.352;-6.356;2023-05-29T08:27:03;15.48;;;5.35;;
35530;SDS011;21637;53.352;-6.356;2023-05-29T08:29:29;15.65;;;5.75;;
35530;SDS011;21637;53.352;-6.356;2023-05-29T08:31:55;18.90;;;5.97;;
35530;SDS011;21637;53.352;-6.356;2023-05-29T08:34:21;20.70;;;6.53;;
35530;SDS011;21637;53.352;-6.356;2023-05-29T08:36:47;15.05;;;5.82;;
35530;SDS011;21637;53.352;-6.356;2023-05-29T08:39:13;16.52;;;5.05;;
35530;SDS011;21637;53.352;-6.356;2023-05-29T08:44:23;21.58;;;5.60;;
35530;SDS011;21637;53.352;-6.356;2023-05-29T08:46:54;16.42;;;5.55;;
35530;SDS011;21637;53.352;-6.356;2023-05-29T08:49:21;17.53;;;5.30;;
35530;SDS011;21637;53.352;-6.356;2023-05-29T08:51:53;17.38;;;4.78;;
35530;SDS011;21637;53.352;-6.356;2023-05-29T08:54:30;18.33;;;4.97;;
35530;SDS011;21637;53.352;-6.356;2023-05-29T08:56:57;14.52;;;4.78;;
35530;SDS011;21637;53.352;-6.356;2023-05-29T08:59:25;11.43;;;4.43;;
35530;SDS011;21637;53.352;-6.356;2023-05-29T09:01:51;32.10;;;6.57;;
35530;SDS011;21637;53.352;-6.356;2023-05-29T09:04:17;15.82;;;4.45;;
35530;SDS011;21637;53.352;-6.356;2023-05-29T09:06:44;21.25;;;4.88;;
35530;SDS011;21637;53.352;-6.356;2023-05-29T09:09:10;13.30;;;4.32;;
35530;SDS011;21637;53.352;-6.356;2023-05-29T09:11:35;10.18;;;4.10;;
35530;SDS011;21637;53.352;-6.356;2023-05-29T09:14:01;12.45;;;4.25;;
35530;SDS011;21637;53.352;-6.356;2023-05-29T09:16:28;15.10;;;3.78;;
35530;SDS011;21637;53.352;-6.356;2023-05-29T09:19:04;11.52;;;3.60;;
35530;SDS011;21637;53.352;-6.356;2023-05-29T09:21:31;12.73;;;3.70;;
35530;SDS011;21637;53.352;-6.356;2023-05-29T09:24:04;11.15;;;3.35;;
35530;SDS011;21637;53.352;-6.356;2023-05-29T09:26:31;12.95;;;3.33;;
35530;SDS011;21637;53.352;-6.356;2023-05-29T09:28:57;16.38;;;3.95;;
35530;SDS011;21637;53.352;-6.356;2023-05-29T09:31:23;9.63;;;2.90;;
35530;SDS011;21637;53.352;-6.356;2023-05-29T09:33:49;12.73;;;3.58;;
35530;SDS011;21637;53.352;-6.356;2023-05-29T09:36:22;14.98;;;3.45;;
35530;SDS011;21637;53.352;-6.356;2023-05-29T09:38:48;12.93;;;3.53;;
35530;SDS011;21637;53.352;-6.356;2023-05-29T09:41:21;15.30;;;3.53;;
35530;SDS011;21637;53.352;-6.356;2023-05-29T09:43:48;12.60;;;2.80;;
35530;SDS011;21637;53.352;-6.356;2023-05-29T09:46:19;10.63;;;3.08;;
35530;SDS011;21637;53.352;-6.356;2023-05-29T09:48:45;14.82;;;3.47;;
35530;SDS011;21637;53.352;-6.356;2023-05-29T09:51:21;14.90;;;3.47;;
35530;SDS011;21637;53.352;-6.356;2023-05-29T09:53:49;10.23;;;3.40;;
35530;SDS011;21637;53.352;-6.356;2023-05-29T09:56:18;8.43;;;3.35;;
35530;SDS011;21637;53.352;-6.356;2023-05-29T09:58:51;13.25;;;3.42;;
35530;SDS011;21637;53.352;-6.356;2023-05-29T10:01:18;13.63;;;3.80;;
35530;SDS011;21637;53.352;-6.356;2023-05-29T10:03:44;17.73;;;4.00;;
35530;SDS011;21637;53.352;-6.356;2023-05-29T10:06:11;17.38;;;4.25;;
35530;SDS011;21637;53.352;-6.356;2023-05-29T10:08:50;11.77;;;3.53;;
35530;SDS011;21637;53.352;-6.356;2023-05-29T10:11:20;13.27;;;3.22;;
35530;SDS011;21637;53.352;-6.356;2023-05-29T10:16:21;11.20;;;3.67;;
35530;SDS011;21637;53.352;-6.356;2023-05-29T10:18:57;13.15;;;3.40;;
35530;SDS011;21637;53.352;-6.356;2023-05-29T10:21:27;15.93;;;3.15;;
35530;SDS011;21637;53.352;-6.356;2023-05-29T10:23:54;12.13;;;3.08;;
35530;SDS011;21637;53.352;-6.356;2023-05-29T10:26:22;12.60;;;3.00;;
35530;SDS011;21637;53.352;-6.356;2023-05-29T10:31:59;9.23;;;2.90;;
35530;SDS011;21637;53.352;-6.356;2023-05-29T10:37:06;10.27;;;2.85;;
35530;SDS011;21637;53.352;-6.356;2023-05-29T10:39:39;8.90;;;3.13;;
35530;SDS011;21637;53.352;-6.356;2023-05-29T10:42:23;11.20;;;3.05;;
35530;SDS011;21637;53.352;-6.356;2023-05-29T10:45:10;9.07;;;2.75;;
35530;SDS011;21637;53.352;-6.356;2023-05-29T10:47:37;11.45;;;3.30;;
35530;SDS011;21637;53.352;-6.356;2023-05-29T10:50:04;10.32;;;3.20;;
35530;SDS011;21637;53.352;-6.356;2023-05-29T10:52:31;11.65;;;3.10;;
35530;SDS011;21637;53.352;-6.356;2023-05-29T10:55:03;11.50;;;3.05;;
35530;SDS011;21637;53.352;-6.356;2023-05-29T10:57:29;10.18;;;2.90;;
35530;SDS011;21637;53.352;-6.356;2023-05-29T11:00:05;8.18;;;2.70;;
35530;SDS011;21637;53.352;-6.356;2023-05-29T11:02:37;10.90;;;2.78;;
35530;SDS011;21637;53.352;-6.356;2023-05-29T11:05:05;7.22;;;2.80;;
35530;SDS011;21637;53.352;-6.356;2023-05-29T11:10:44;14.02;;;3.20;;
35530;SDS011;21637;53.352;-6.356;2023-05-29T11:13:10;10.20;;;2.60;;
35530;SDS011;21637;53.352;-6.356;2023-05-29T11:18:43;11.38;;;2.63;;
35530;SDS011;21637;53.352;-6.356;2023-05-29T11:24:21;9.55;;;3.10;;
35530;SDS011;21637;53.352;-6.356;2023-05-29T11:26:51;9.07;;;2.72;;
35530;SDS011;21637;53.352;-6.356;2023-05-29T11:29:22;10.45;;;2.70;;
35530;SDS011;21637;53.352;-6.356;2023-05-29T11:32:02;9.55;;;2.90;;
35530;SDS011;21637;53.352;-6.356;2023-05-29T11:34:29;5.93;;;2.20;;
35530;SDS011;21637;53.352;-6.356;2023-05-29T11:36:57;6.32;;;2.67;;
35530;SDS011;21637;53.352;-6.356;2023-05-29T11:39:26;12.48;;;3.38;;
35530;SDS011;21637;53.352;-6.356;2023-05-29T11:41:52;14.60;;;3.17;;
35530;SDS011;21637;53.352;-6.356;2023-05-29T11:44:18;13.93;;;3.22;;
35530;SDS011;21637;53.352;-6.356;2023-05-29T11:46:44;10.15;;;2.75;;
35530;SDS011;21637;53.352;-6.356;2023-05-29T11:49:10;9.15;;;3.03;;
35530;SDS011;21637;53.352;-6.356;2023-05-29T11:51:35;11.30;;;2.60;;
35530;SDS011;21637;53.352;-6.356;2023-05-29T11:54:01;5.53;;;2.38;;
35530;SDS011;21637;53.352;-6.356;2023-05-29T11:56:28;10.23;;;3.10;;
35530;SDS011;21637;53.352;-6.356;2023-05-29T11:58:58;10.40;;;2.90;;
35530;SDS011;21637;53.352;-6.356;2023-05-29T12:01:25;15.32;;;3.42;;
35530;SDS011;21637;53.352;-6.356;2023-05-29T12:03:52;11.32;;;2.83;;
35530;SDS011;21637;53.352;-6.356;2023-05-29T12:06:31;9.82;;;3.08;;
35530;SDS011;21637;53.352;-6.356;2023-05-29T12:08:58;13.27;;;3.63;;
35530;SDS011;21637;53.352;-6.356;2023-05-29T12:11:25;11.82;;;3.45;;
35530;SDS011;21637;53.352;-6.356;2023-05-29T12:13:57;15.77;;;3.40;;
35530;SDS011;21637;53.352;-6.356;2023-05-29T12:16:27;10.95;;;3.33;;
35530;SDS011;21637;53.352;-6.356;2023-05-29T12:18:55;14.60;;;3.10;;
35530;SDS011;21637;53.352;-6.356;2023-05-29T12:21:21;10.35;;;3.33;;
35530;SDS011;21637;53.352;-6.356;2023-05-29T12:23:51;13.98;;;3.75;;
35530;SDS011;21637;53.352;-6.356;2023-05-29T12:26:21;10.63;;;3.33;;
35530;SDS011;21637;53.352;-6.356;2023-05-29T12:28:48;12.68;;;3.33;;
35530;SDS011;21637;53.352;-6.356;2023-05-29T12:31:28;10.25;;;3.03;;
35530;SDS011;21637;53.352;-6.356;2023-05-29T12:34:00;12.55;;;3.58;;
35530;SDS011;21637;53.352;-6.356;2023-05-29T12:36:39;11.95;;;3.08;;
35530;SDS011;21637;53.352;-6.356;2023-05-29T12:39:09;11.50;;;3.03;;
35530;SDS011;21637;53.352;-6.356;2023-05-29T12:41:35;13.27;;;3.38;;
35530;SDS011;21637;53.352;-6.356;2023-05-29T12:44:02;11.30;;;3.20;;
35530;SDS011;21637;53.352;-6.356;2023-05-29T12:46:35;14.25;;;3.80;;
35530;SDS011;21637;53.352;-6.356;2023-05-29T12:49:14;13.93;;;3.70;;
35530;SDS011;21637;53.352;-6.356;2023-05-29T12:51:41;11.32;;;3.20;;
35530;SDS011;21637;53.352;-6.356;2023-05-29T12:54:09;13.75;;;3.42;;
35530;SDS011;21637;53.352;-6.356;2023-05-29T12:56:36;14.75;;;3.13;;
35530;SDS011;21637;53.352;-6.356;2023-05-29T12:59:05;15.30;;;3.60;;
35530;SDS011;21637;53.352;-6.356;2023-05-29T13:01:32;13.88;;;3.50;;
35530;SDS011;21637;53.352;-6.356;2023-05-29T13:03:58;12.82;;;3.20;;
35530;SDS011;21637;53.352;-6.356;2023-05-29T13:06:23;12.52;;;3.30;;
35530;SDS011;21637;53.352;-6.356;2023-05-29T13:08:49;11.27;;;3.00;;
35530;SDS011;21637;53.352;-6.356;2023-05-29T13:11:15;12.65;;;3.85;;
35530;SDS011;21637;53.352;-6.356;2023-05-29T13:13:41;12.55;;;3.63;;
35530;SDS011;21637;53.352;-6.356;2023-05-29T13:16:07;10.18;;;3.00;;
35530;SDS011;21637;53.352;-6.356;2023-05-29T13:18:33;13.32;;;3.25;;
35530;SDS011;21637;53.352;-6.356;2023-05-29T13:20:59;8.65;;;3.03;;
35530;SDS011;21637;53.352;-6.356;2023-05-29T13:23:25;10.57;;;3.00;;
35530;SDS011;21637;53.352;-6.356;2023-05-29T13:25:51;9.55;;;3.03;;
35530;SDS011;21637;53.352;-6.356;2023-05-29T13:28:16;9.32;;;3.15;;
35530;SDS011;21637;53.352;-6.356;2023-05-29T13:30:43;14.18;;;3.53;;
35530;SDS011;21637;53.352;-6.356;2023-05-29T13:33:09;11.43;;;3.30;;
35530;SDS011;21637;53.352;-6.356;2023-05-29T13:35:35;13.82;;;3.50;;
35530;SDS011;21637;53.352;-6.356;2023-05-29T13:38:01;11.45;;;3.15;;
35530;SDS011;21637;53.352;-6.356;2023-05-29T13:40:27;10.13;;;3.47;;
35530;SDS011;21637;53.352;-6.356;2023-05-29T13:42:53;12.88;;;3.65;;
35530;SDS011;21637;53.352;-6.356;2023-05-29T13:45:20;11.65;;;3.13;;
35530;SDS011;21637;53.352;-6.356;2023-05-29T13:47:45;15.27;;;3.78;;
35530;SDS011;21637;53.352;-6.356;2023-05-29T13:50:11;8.82;;;3.20;;
35530;SDS011;21637;53.352;-6.356;2023-05-29T13:52:37;14.27;;;3.45;;
35530;SDS011;21637;53.352;-6.356;2023-05-29T13:55:03;11.82;;;3.30;;
35530;SDS011;21637;53.352;-6.356;2023-05-29T13:57:33;11.82;;;3.92;;
35530;SDS011;21637;53.352;-6.356;2023-05-29T14:00:02;13.63;;;3.60;;
35530;SDS011;21637;53.352;-6.356;2023-05-29T14:02:29;13.52;;;3.70;;
35530;SDS011;21637;53.352;-6.356;2023-05-29T14:04:54;8.57;;;3.08;;
35530;SDS011;21637;53.352;-6.356;2023-05-29T14:07:20;14.45;;;4.22;;
35530;SDS011;21637;53.352;-6.356;2023-05-29T14:09:46;9.55;;;3.70;;
35530;SDS011;21637;53.352;-6.356;2023-05-29T14:12:12;13.10;;;3.25;;
35530;SDS011;21637;53.352;-6.356;2023-05-29T14:14:37;13.73;;;3.88;;
35530;SDS011;21637;53.352;-6.356;2023-05-29T14:17:03;11.38;;;3.67;;
35530;SDS011;21637;53.352;-6.356;2023-05-29T14:19:30;14.00;;;3.30;;
35530;SDS011;21637;53.352;-6.356;2023-05-29T14:21:56;8.77;;;3.17;;
35530;SDS011;21637;53.352;-6.356;2023-05-29T14:24:21;14.52;;;4.00;;
35530;SDS011;21637;53.352;-6.356;2023-05-29T14:26:49;11.15;;;3.38;;
35530;SDS011;21637;53.352;-6.356;2023-05-29T14:29:15;13.45;;;3.50;;
35530;SDS011;21637;53.352;-6.356;2023-05-29T14:31:42;13.75;;;3.35;;
35530;SDS011;21637;53.352;-6.356;2023-05-29T14:34:08;12.95;;;3.40;;
35530;SDS011;21637;53.352;-6.356;2023-05-29T14:36:34;9.68;;;3.25;;
35530;SDS011;21637;53.352;-6.356;2023-05-29T14:39:00;12.95;;;3.17;;
35530;SDS011;21637;53.352;-6.356;2023-05-29T14:41:27;12.80;;;3.42;;
35530;SDS011;21637;53.352;-6.356;2023-05-29T14:43:52;11.55;;;3.10;;
35530;SDS011;21637;53.352;-6.356;2023-05-29T14:46:18;9.35;;;3.17;;
35530;SDS011;21637;53.352;-6.356;2023-05-29T14:48:44;12.23;;;3.10;;
35530;SDS011;21637;53.352;-6.356;2023-05-29T14:51:12;12.18;;;3.35;;
35530;SDS011;21637;53.352;-6.356;2023-05-29T14:53:37;9.23;;;3.35;;